sensor_id;sensor_type;location;lat;lon;timestamp;pressure;altitude;pressure_sealevel;temperature;humidity
49451;BME280;35336;48.400;10.886;2024-01-16T00:00:11;95556.72;;;-3.05;73.56
49451;BME280;35336;48.400;10.886;2024-01-16T00:00:27;95557.66;;;-3.06;73.35
49451;BME280;35336;48.400;10.886;2024-01-16T00:00:42;95563.56;;;-3.04;73.74
49451;BME280;35336;48.400;10.886;2024-01-16T00:00:57;95558.63;;;-3.07;73.67
49451;BME280;35336;48.400;10.886;2024-01-16T00:01:13;95550.22;;;-3.11;73.81
49451;BME280;35336;48.400;10.886;2024-01-16T00:01:30;95554.50;;;-3.10;73.71
49451;BME280;35336;48.400;10.886;2024-01-16T00:01:45;95555.44;;;-3.11;73.81
49451;BME280;35336;48.400;10.886;2024-01-16T00:02:03;95558.88;;;-3.10;73.65
49451;BME280;35336;48.400;10.886;2024-01-16T00:02:18;95565.03;;;-3.11;73.85
49451;BME280;35336;48.400;10.886;2024-01-16T00:02:36;95559.81;;;-3.11;73.54
49451;BME280;35336;48.400;10.886;2024-01-16T00:02:51;95545.50;;;-3.27;73.79
49451;BME280;35336;48.400;10.886;2024-01-16T00:03:06;95563.53;;;-3.14;73.66
49451;BME280;35336;48.400;10.886;2024-01-16T00:03:21;95568.63;;;-3.12;73.52
49451;BME280;35336;48.400;10.886;2024-01-16T00:03:38;95559.41;;;-3.16;73.41
49451;BME280;35336;48.400;10.886;2024-01-16T00:03:53;95568.63;;;-3.12;73.60
49451;BME280;35336;48.400;10.886;2024-01-16T00:04:09;95562.84;;;-3.16;73.73
49451;BME280;35336;48.400;10.886;2024-01-16T00:04:24;95568.16;;;-3.17;73.58
49451;BME280;35336;48.400;10.886;2024-01-16T00:04:40;95566.28;;;-3.15;73.55
49451;BME280;35336;48.400;10.886;2024-01-16T00:04:55;95560.25;;;-3.16;73.57
49451;BME280;35336;48.400;10.886;2024-01-16T00:05:12;95538.88;;;-3.31;73.88
49451;BME280;35336;48.400;10.886;2024-01-16T00:05:28;95567.78;;;-3.13;74.06
49451;BME280;35336;48.400;10.886;2024-01-16T00:05:43;95569.59;;;-3.13;73.95
49451;BME280;35336;48.400;10.886;2024-01-16T00:05:58;95566.13;;;-3.14;73.61
49451;BME280;35336;48.400;10.886;2024-01-16T00:06:14;95550.72;;;-3.27;73.70
49451;BME280;35336;48.400;10.886;2024-01-16T00:06:29;95545.75;;;-3.30;73.58
49451;BME280;35336;48.400;10.886;2024-01-16T00:06:44;95562.84;;;-3.16;73.97
49451;BME280;35336;48.400;10.886;2024-01-16T00:06:59;95557.06;;;-3.20;73.96
49451;BME280;35336;48.400;10.886;2024-01-16T00:07:15;95565.31;;;-3.14;73.75
49451;BME280;35336;48.400;10.886;2024-01-16T00:07:30;95576.44;;;-3.12;73.92
49451;BME280;35336;48.400;10.886;2024-01-16T00:07:47;95566.97;;;-3.13;73.90
49451;BME280;35336;48.400;10.886;2024-01-16T00:08:05;95569.59;;;-3.13;73.90
49451;BME280;35336;48.400;10.886;2024-01-16T00:08:20;95566.13;;;-3.14;73.91
49451;BME280;35336;48.400;10.886;2024-01-16T00:08:36;95565.56;;;-3.17;73.71
49451;BME280;35336;48.400;10.886;2024-01-16T00:08:51;95569.69;;;-3.15;73.89
49451;BME280;35336;48.400;10.886;2024-01-16T00:09:07;95566.97;;;-3.13;73.77
49451;BME280;35336;48.400;10.886;2024-01-16T00:09:22;95571.50;;;-3.15;73.84
49451;BME280;35336;48.400;10.886;2024-01-16T00:09:37;95573.84;;;-3.12;73.89
49451;BME280;35336;48.400;10.886;2024-01-16T00:09:52;95568.63;;;-3.12;73.78
49451;BME280;35336;48.400;10.886;2024-01-16T00:10:08;95570.25;;;-3.11;73.87
49451;BME280;35336;48.400;10.886;2024-01-16T00:10:23;95575.47;;;-3.11;73.73
49451;BME280;35336;48.400;10.886;2024-01-16T00:10:38;95577.13;;;-3.10;74.14
49451;BME280;35336;48.400;10.886;2024-01-16T00:10:54;95574.91;;;-3.15;73.76
49451;BME280;35336;48.400;10.886;2024-01-16T00:11:09;95567.78;;;-3.13;73.56
49451;BME280;35336;48.400;10.886;2024-01-16T00:11:24;95579.06;;;-3.12;73.37
49451;BME280;35336;48.400;10.886;2024-01-16T00:11:41;95580.00;;;-3.13;73.27
49451;BME280;35336;48.400;10.886;2024-01-16T00:11:56;95573.94;;;-3.14;73.27
49451;BME280;35336;48.400;10.886;2024-01-16T00:12:11;95578.22;;;-3.13;73.33
49451;BME280;35336;48.400;10.886;2024-01-16T00:12:26;95578.22;;;-3.13;73.47
49451;BME280;35336;48.400;10.886;2024-01-16T00:12:42;95546.00;;;-3.33;73.22
49451;BME280;35336;48.400;10.886;2024-01-16T00:12:59;95578.34;;;-3.14;73.64
49451;BME280;35336;48.400;10.886;2024-01-16T00:13:15;95585.22;;;-3.13;73.54
49451;BME280;35336;48.400;10.886;2024-01-16T00:13:32;95563.88;;;-3.28;73.37
49451;BME280;35336;48.400;10.886;2024-01-16T00:13:47;95587.13;;;-3.15;73.33
49451;BME280;35336;48.400;10.886;2024-01-16T00:14:02;95579.31;;;-3.15;73.40
49451;BME280;35336;48.400;10.886;2024-01-16T00:14:17;95575.03;;;-3.16;73.44
49451;BME280;35336;48.400;10.886;2024-01-16T00:14:36;95580.13;;;-3.15;73.04
49451;BME280;35336;48.400;10.886;2024-01-16T00:14:52;95577.66;;;-3.16;73.04
49451;BME280;35336;48.400;10.886;2024-01-16T00:15:08;95567.50;;;-3.20;73.30
49451;BME280;35336;48.400;10.886;2024-01-16T00:15:24;95580.25;;;-3.16;73.50
49451;BME280;35336;48.400;10.886;2024-01-16T00:15:40;95584.53;;;-3.15;73.64
49451;BME280;35336;48.400;10.886;2024-01-16T00:15:55;95578.34;;;-3.14;73.61
49451;BME280;35336;48.400;10.886;2024-01-16T00:16:10;95572.16;;;-3.23;73.46
49451;BME280;35336;48.400;10.886;2024-01-16T00:16:26;95582.06;;;-3.17;73.29
49451;BME280;35336;48.400;10.886;2024-01-16T00:16:44;95572.81;;;-3.21;73.25
49451;BME280;35336;48.400;10.886;2024-01-16T00:17:00;95579.56;;;-3.19;73.56
49451;BME280;35336;48.400;10.886;2024-01-16T00:17:15;95574.63;;;-3.22;73.43
49451;BME280;35336;48.400;10.886;2024-01-16T00:17:30;95581.50;;;-3.21;73.75
49451;BME280;35336;48.400;10.886;2024-01-16T00:17:46;95582.16;;;-3.19;73.91
49451;BME280;35336;48.400;10.886;2024-01-16T00:18:01;95576.53;;;-3.24;73.86
49451;BME280;35336;48.400;10.886;2024-01-16T00:18:16;95577.94;;;-3.20;74.02
49451;BME280;35336;48.400;10.886;2024-01-16T00:18:31;95579.84;;;-3.22;73.54
49451;BME280;35336;48.400;10.886;2024-01-16T00:18:47;95578.19;;;-3.23;73.44
49451;BME280;35336;48.400;10.886;2024-01-16T00:19:02;95554.34;;;-3.39;73.25
49451;BME280;35336;48.400;10.886;2024-01-16T00:19:17;95582.56;;;-3.23;73.40
49451;BME280;35336;48.400;10.886;2024-01-16T00:19:32;95576.53;;;-3.24;73.33
49451;BME280;35336;48.400;10.886;2024-01-16T00:19:48;95572.25;;;-3.25;73.70
49451;BME280;35336;48.400;10.886;2024-01-16T00:20:06;95590.25;;;-3.22;73.63
49451;BME280;35336;48.400;10.886;2024-01-16T00:20:23;95552.59;;;-3.39;73.47
49451;BME280;35336;48.400;10.886;2024-01-16T00:20:38;95579.13;;;-3.24;73.27
49451;BME280;35336;48.400;10.886;2024-01-16T00:20:54;95579.50;;;-3.28;73.40
49451;BME280;35336;48.400;10.886;2024-01-16T00:21:12;95579.28;;;-3.25;73.43
49451;BME280;35336;48.400;10.886;2024-01-16T00:21:27;95585.44;;;-3.26;72.92
49451;BME280;35336;48.400;10.886;2024-01-16T00:21:44;95585.28;;;-3.25;72.99
49451;BME280;35336;48.400;10.886;2024-01-16T00:22:02;95591.34;;;-3.24;72.97
49451;BME280;35336;48.400;10.886;2024-01-16T00:22:20;95582.69;;;-3.25;72.93
49451;BME280;35336;48.400;10.886;2024-01-16T00:22:35;95584.34;;;-3.24;73.06
49451;BME280;35336;48.400;10.886;2024-01-16T00:22:50;95582.31;;;-3.20;73.22
49451;BME280;35336;48.400;10.886;2024-01-16T00:23:06;95586.44;;;-3.17;73.42
49451;BME280;35336;48.400;10.886;2024-01-16T00:23:21;95594.72;;;-3.12;73.49
49451;BME280;35336;48.400;10.886;2024-01-16T00:23:36;95585.75;;;-3.20;72.67
49451;BME280;35336;48.400;10.886;2024-01-16T00:23:52;95572.41;;;-3.26;72.73
49451;BME280;35336;48.400;10.886;2024-01-16T00:24:07;95582.16;;;-3.19;72.68
49451;BME280;35336;48.400;10.886;2024-01-16T00:24:23;95581.34;;;-3.19;72.64
49451;BME280;35336;48.400;10.886;2024-01-16T00:24:38;95586.56;;;-3.19;72.79
49451;BME280;35336;48.400;10.886;2024-01-16T00:25:00;95583.00;;;-3.18;73.04
49451;BME280;35336;48.400;10.886;2024-01-16T00:25:19;95584.19;;;-3.22;72.99
49451;BME280;35336;48.400;10.886;2024-01-16T00:25:34;95584.09;;;-3.21;72.74
49451;BME280;35336;48.400;10.886;2024-01-16T00:25:50;95587.66;;;-3.22;73.05
49451;BME280;35336;48.400;10.886;2024-01-16T00:26:07;95581.88;;;-3.25;72.99
49451;BME280;35336;48.400;10.886;2024-01-16T00:26:23;95579.84;;;-3.22;72.80
49451;BME280;35336;48.400;10.886;2024-01-16T00:26:38;95580.78;;;-3.23;72.97
49451;BME280;35336;48.400;10.886;2024-01-16T00:26:53;95584.34;;;-3.24;72.90
49451;BME280;35336;48.400;10.886;2024-01-16T00:27:11;95592.16;;;-3.24;73.07
49451;BME280;35336;48.400;10.886;2024-01-16T00:27:26;95550.22;;;-3.42;73.51
49451;BME280;35336;48.400;10.886;2024-01-16T00:27:42;95596.56;;;-3.24;73.43
49451;BME280;35336;48.400;10.886;2024-01-16T00:27:57;95585.28;;;-3.25;73.33
49451;BME280;35336;48.400;10.886;2024-01-16T00:28:12;95581.03;;;-3.26;73.05
49451;BME280;35336;48.400;10.886;2024-01-16T00:28:27;95588.84;;;-3.26;72.81
49451;BME280;35336;48.400;10.886;2024-01-16T00:28:43;95584.47;;;-3.25;72.81
49451;BME280;35336;48.400;10.886;2024-01-16T00:29:04;95586.38;;;-3.27;72.84
49451;BME280;35336;48.400;10.886;2024-01-16T00:29:22;95578.56;;;-3.27;72.96
49451;BME280;35336;48.400;10.886;2024-01-16T00:29:37;95593.38;;;-3.28;73.11
49451;BME280;35336;48.400;10.886;2024-01-16T00:29:52;95579.91;;;-3.33;73.09
49451;BME280;35336;48.400;10.886;2024-01-16T00:30:08;95575.94;;;-3.27;73.41
49451;BME280;35336;48.400;10.886;2024-01-16T00:30:26;95562.16;;;-3.39;73.09
49451;BME280;35336;48.400;10.886;2024-01-16T00:30:41;95587.91;;;-3.25;73.06
49451;BME280;35336;48.400;10.886;2024-01-16T00:30:56;95583.63;;;-3.26;73.21
49451;BME280;35336;48.400;10.886;2024-01-16T00:31:12;95567.56;;;-3.31;73.02
49451;BME280;35336;48.400;10.886;2024-01-16T00:31:27;95585.28;;;-3.25;73.25
49451;BME280;35336;48.400;10.886;2024-01-16T00:31:42;95585.56;;;-3.28;73.17
49451;BME280;35336;48.400;10.886;2024-01-16T00:32:00;95584.47;;;-3.25;73.45
49451;BME280;35336;48.400;10.886;2024-01-16T00:32:15;95580.06;;;-3.25;73.24
49451;BME280;35336;48.400;10.886;2024-01-16T00:32:31;95573.47;;;-3.29;73.29
49451;BME280;35336;48.400;10.886;2024-01-16T00:32:46;95592.16;;;-3.24;73.18
49451;BME280;35336;48.400;10.886;2024-01-16T00:33:02;95577.59;;;-3.26;72.99
49451;BME280;35336;48.400;10.886;2024-01-16T00:33:17;95581.88;;;-3.25;73.24
49451;BME280;35336;48.400;10.886;2024-01-16T00:33:32;95585.28;;;-3.25;73.10
49451;BME280;35336;48.400;10.886;2024-01-16T00:33:48;95587.91;;;-3.25;73.38
49451;BME280;35336;48.400;10.886;2024-01-16T00:34:03;95580.06;;;-3.25;73.29
49451;BME280;35336;48.400;10.886;2024-01-16T00:34:18;95581.88;;;-3.25;73.28
49451;BME280;35336;48.400;10.886;2024-01-16T00:34:33;95574.44;;;-3.30;73.21
49451;BME280;35336;48.400;10.886;2024-01-16T00:34:51;95588.03;;;-3.26;73.21
49451;BME280;35336;48.400;10.886;2024-01-16T00:35:09;95585.44;;;-3.26;73.54
49451;BME280;35336;48.400;10.886;2024-01-16T00:35:27;95582.97;;;-3.28;73.59
49451;BME280;35336;48.400;10.886;2024-01-16T00:35:42;95579.28;;;-3.25;73.47
49451;BME280;35336;48.400;10.886;2024-01-16T00:35:57;95585.44;;;-3.26;73.11
49451;BME280;35336;48.400;10.886;2024-01-16T00:36:15;95584.63;;;-3.27;73.14
49451;BME280;35336;48.400;10.886;2024-01-16T00:36:30;95583.78;;;-3.27;73.23
49451;BME280;35336;48.400;10.886;2024-01-16T00:36:45;95585.56;;;-3.28;73.08
49451;BME280;35336;48.400;10.886;2024-01-16T00:37:03;95581.31;;;-3.29;73.07
49451;BME280;35336;48.400;10.886;2024-01-16T00:37:18;95583.91;;;-3.29;72.88
49451;BME280;35336;48.400;10.886;2024-01-16T00:37:36;95581.16;;;-3.27;73.02
49451;BME280;35336;48.400;10.886;2024-01-16T00:37:51;95583.63;;;-3.26;73.08
49451;BME280;35336;48.400;10.886;2024-01-16T00:38:07;95589.84;;;-3.27;73.18
49451;BME280;35336;48.400;10.886;2024-01-16T00:38:24;95588.19;;;-3.28;72.84
49451;BME280;35336;48.400;10.886;2024-01-16T00:38:39;95578.56;;;-3.27;73.27
49451;BME280;35336;48.400;10.886;2024-01-16T00:38:54;95573.63;;;-3.30;73.25
49451;BME280;35336;48.400;10.886;2024-01-16T00:39:10;95575.94;;;-3.27;73.46
49451;BME280;35336;48.400;10.886;2024-01-16T00:39:25;95581.03;;;-3.26;73.39
49451;BME280;35336;48.400;10.886;2024-01-16T00:39:42;95586.38;;;-3.27;73.45
49451;BME280;35336;48.400;10.886;2024-01-16T00:39:58;95587.22;;;-3.27;73.29
49451;BME280;35336;48.400;10.886;2024-01-16T00:40:15;95580.34;;;-3.28;73.50
49451;BME280;35336;48.400;10.886;2024-01-16T00:40:30;95579.66;;;-3.30;73.46
49451;BME280;35336;48.400;10.886;2024-01-16T00:40:46;95576.63;;;-3.35;73.37
49451;BME280;35336;48.400;10.886;2024-01-16T00:41:01;95572.34;;;-3.36;73.52
49451;BME280;35336;48.400;10.886;2024-01-16T00:41:19;95568.78;;;-3.35;73.34
49451;BME280;35336;48.400;10.886;2024-01-16T00:41:34;95583.63;;;-3.26;73.24
49451;BME280;35336;48.400;10.886;2024-01-16T00:41:51;95571.59;;;-3.27;73.18
49451;BME280;35336;48.400;10.886;2024-01-16T00:42:09;95577.75;;;-3.28;72.79
49451;BME280;35336;48.400;10.886;2024-01-16T00:42:24;95579.41;;;-3.27;73.05
49451;BME280;35336;48.400;10.886;2024-01-16T00:42:40;95577.19;;;-3.31;73.22
49451;BME280;35336;48.400;10.886;2024-01-16T00:42:55;95543.50;;;-3.44;73.31
49451;BME280;35336;48.400;10.886;2024-01-16T00:43:13;95559.75;;;-3.31;73.26
49451;BME280;35336;48.400;10.886;2024-01-16T00:43:28;95568.50;;;-3.32;73.06
49451;BME280;35336;48.400;10.886;2024-01-16T00:43:44;95577.59;;;-3.26;73.43
49451;BME280;35336;48.400;10.886;2024-01-16T00:44:01;95573.34;;;-3.27;73.04
49451;BME280;35336;48.400;10.886;2024-01-16T00:44:19;95566.03;;;-3.33;73.08
49451;BME280;35336;48.400;10.886;2024-01-16T00:44:34;95569.38;;;-3.31;72.92
49451;BME280;35336;48.400;10.886;2024-01-16T00:44:49;95578.13;;;-3.32;72.94
49451;BME280;35336;48.400;10.886;2024-01-16T00:45:05;95579.91;;;-3.33;72.89
49451;BME280;35336;48.400;10.886;2024-01-16T00:45:20;95568.91;;;-3.37;73.06
49451;BME280;35336;48.400;10.886;2024-01-16T00:45:36;95577.56;;;-3.36;72.89
49451;BME280;35336;48.400;10.886;2024-01-16T00:45:51;95575.91;;;-3.37;72.80
49451;BME280;35336;48.400;10.886;2024-01-16T00:46:06;95575.63;;;-3.34;72.81
49451;BME280;35336;48.400;10.886;2024-01-16T00:46:22;95580.84;;;-3.34;72.93
49451;BME280;35336;48.400;10.886;2024-01-16T00:46:37;95555.81;;;-3.46;72.93
49451;BME280;35336;48.400;10.886;2024-01-16T00:46:52;95571.97;;;-3.31;72.99
49451;BME280;35336;48.400;10.886;2024-01-16T00:47:07;95578.25;;;-3.34;72.77
49451;BME280;35336;48.400;10.886;2024-01-16T00:47:23;95571.25;;;-3.33;72.75
49451;BME280;35336;48.400;10.886;2024-01-16T00:47:40;95568.09;;;-3.37;72.83
49451;BME280;35336;48.400;10.886;2024-01-16T00:47:58;95554.44;;;-3.51;72.86
49451;BME280;35336;48.400;10.886;2024-01-16T00:48:13;95556.78;;;-3.47;72.86
49451;BME280;35336;48.400;10.886;2024-01-16T00:48:28;95578.38;;;-3.36;72.83
49451;BME280;35336;48.400;10.886;2024-01-16T00:48:43;95574.25;;;-3.38;72.74
49451;BME280;35336;48.400;10.886;2024-01-16T00:48:59;95570.69;;;-3.37;72.59
49451;BME280;35336;48.400;10.886;2024-01-16T00:49:14;95570.25;;;-3.42;72.76
49451;BME280;35336;48.400;10.886;2024-01-16T00:49:29;95570.84;;;-3.39;72.78
49451;BME280;35336;48.400;10.886;2024-01-16T00:49:45;95576.03;;;-3.39;72.93
49451;BME280;35336;48.400;10.886;2024-01-16T00:50:00;95574.50;;;-3.41;73.09
49451;BME280;35336;48.400;10.886;2024-01-16T00:50:15;95573.44;;;-3.39;72.89
49451;BME280;35336;48.400;10.886;2024-01-16T00:50:30;95574.38;;;-3.40;73.18
49451;BME280;35336;48.400;10.886;2024-01-16T00:50:48;95576.16;;;-3.40;73.20
49451;BME280;35336;48.400;10.886;2024-01-16T00:51:04;95571.88;;;-3.41;73.19
49451;BME280;35336;48.400;10.886;2024-01-16T00:51:21;95554.81;;;-3.55;73.02
49451;BME280;35336;48.400;10.886;2024-01-16T00:51:37;95578.09;;;-3.42;73.20
49451;BME280;35336;48.400;10.886;2024-01-16T00:51:52;95577.25;;;-3.43;73.12
49451;BME280;35336;48.400;10.886;2024-01-16T00:52:07;95576.28;;;-3.42;73.20
49451;BME280;35336;48.400;10.886;2024-01-16T00:52:22;95580.78;;;-3.44;73.23
49451;BME280;35336;48.400;10.886;2024-01-16T00:52:38;95574.19;;;-3.48;73.00
49451;BME280;35336;48.400;10.886;2024-01-16T00:52:53;95568.56;;;-3.53;73.18
49451;BME280;35336;48.400;10.886;2024-01-16T00:53:09;95584.50;;;-3.46;72.99
49451;BME280;35336;48.400;10.886;2024-01-16T00:53:24;95562.88;;;-3.58;73.04
49451;BME280;35336;48.400;10.886;2024-01-16T00:53:42;95552.97;;;-3.64;73.05
49451;BME280;35336;48.400;10.886;2024-01-16T00:54:00;95580.50;;;-3.51;73.17
49451;BME280;35336;48.400;10.886;2024-01-16T00:54:18;95578.00;;;-3.52;73.16
49451;BME280;35336;48.400;10.886;2024-01-16T00:54:33;95582.25;;;-3.51;73.27
49451;BME280;35336;48.400;10.886;2024-01-16T00:54:51;95573.63;;;-3.52;73.38
49451;BME280;35336;48.400;10.886;2024-01-16T00:55:06;95584.06;;;-3.52;73.07
49451;BME280;35336;48.400;10.886;2024-01-16T00:55:22;95586.66;;;-3.52;73.47
49451;BME280;35336;48.400;10.886;2024-01-16T00:55:37;95579.78;;;-3.53;73.37
49451;BME280;35336;48.400;10.886;2024-01-16T00:55:53;95575.81;;;-3.57;73.22
49451;BME280;35336;48.400;10.886;2024-01-16T00:56:08;95585.00;;;-3.53;73.20
49451;BME280;35336;48.400;10.886;2024-01-16T00:56:24;95580.75;;;-3.54;73.38
49451;BME280;35336;48.400;10.886;2024-01-16T00:56:41;95579.78;;;-3.53;73.33
49451;BME280;35336;48.400;10.886;2024-01-16T00:56:58;95576.38;;;-3.53;73.29
49451;BME280;35336;48.400;10.886;2024-01-16T00:57:16;95576.25;;;-3.52;73.46
49451;BME280;35336;48.400;10.886;2024-01-16T00:57:34;95577.19;;;-3.53;73.07
49451;BME280;35336;48.400;10.886;2024-01-16T00:57:52;95585.00;;;-3.53;73.35
49451;BME280;35336;48.400;10.886;2024-01-16T00:58:07;95580.59;;;-3.52;73.15
49451;BME280;35336;48.400;10.886;2024-01-16T00:58:23;95581.59;;;-3.53;73.33
49451;BME280;35336;48.400;10.886;2024-01-16T00:58:38;95578.84;;;-3.52;73.35
49451;BME280;35336;48.400;10.886;2024-01-16T00:58:56;95560.41;;;-3.60;73.23
49451;BME280;35336;48.400;10.886;2024-01-16T00:59:13;95570.25;;;-3.42;73.25
49451;BME280;35336;48.400;10.886;2024-01-16T00:59:29;95583.97;;;-3.40;73.28
49451;BME280;35336;48.400;10.886;2024-01-16T00:59:46;95584.09;;;-3.42;73.28
49451;BME280;35336;48.400;10.886;2024-01-16T01:00:02;95576.44;;;-3.43;73.00
49451;BME280;35336;48.400;10.886;2024-01-16T01:00:20;95586.00;;;-3.44;73.04
49451;BME280;35336;48.400;10.886;2024-01-16T01:00:35;95585.06;;;-3.43;73.04
49451;BME280;35336;48.400;10.886;2024-01-16T01:00:51;95584.34;;;-3.45;73.01
49451;BME280;35336;48.400;10.886;2024-01-16T01:01:06;95568.66;;;-3.55;72.90
49451;BME280;35336;48.400;10.886;2024-01-16T01:01:21;95568.66;;;-3.55;72.82
49451;BME280;35336;48.400;10.886;2024-01-16T01:01:39;95562.06;;;-3.59;72.86
49451;BME280;35336;48.400;10.886;2024-01-16T01:01:54;95582.72;;;-3.46;72.89
49451;BME280;35336;48.400;10.886;2024-01-16T01:02:09;95579.28;;;-3.46;73.17
49451;BME280;35336;48.400;10.886;2024-01-16T01:02:25;95582.72;;;-3.46;73.25
49451;BME280;35336;48.400;10.886;2024-01-16T01:02:40;95577.75;;;-3.49;73.40
49451;BME280;35336;48.400;10.886;2024-01-16T01:02:55;95587.09;;;-3.46;72.98
49451;BME280;35336;48.400;10.886;2024-01-16T01:03:10;95579.28;;;-3.46;72.81
49451;BME280;35336;48.400;10.886;2024-01-16T01:03:26;95586.38;;;-3.48;72.74
49451;BME280;35336;48.400;10.886;2024-01-16T01:03:41;95588.03;;;-3.47;72.88
49451;BME280;35336;48.400;10.886;2024-01-16T01:03:56;95579.56;;;-3.49;72.75
49451;BME280;35336;48.400;10.886;2024-01-16T01:04:14;95582.97;;;-3.49;72.78
49451;BME280;35336;48.400;10.886;2024-01-16T01:04:32;95585.56;;;-3.49;72.77
49451;BME280;35336;48.400;10.886;2024-01-16T01:04:48;95589.97;;;-3.49;72.73
49451;BME280;35336;48.400;10.886;2024-01-16T01:05:03;95585.72;;;-3.51;72.82
49451;BME280;35336;48.400;10.886;2024-01-16T01:05:19;95584.88;;;-3.51;72.76
49451;BME280;35336;48.400;10.886;2024-01-16T01:05:34;95578.84;;;-3.52;72.71
49451;BME280;35336;48.400;10.886;2024-01-16T01:05:49;95596.13;;;-3.51;72.63
49451;BME280;35336;48.400;10.886;2024-01-16T01:06:05;95588.44;;;-3.52;72.71
49451;BME280;35336;48.400;10.886;2024-01-16T01:06:20;95590.09;;;-3.51;72.80
49451;BME280;35336;48.400;10.886;2024-01-16T01:06:36;95587.19;;;-3.58;72.75
49451;BME280;35336;48.400;10.886;2024-01-16T01:06:51;95596.25;;;-3.52;72.82
49451;BME280;35336;48.400;10.886;2024-01-16T01:07:06;95586.66;;;-3.52;72.62
49451;BME280;35336;48.400;10.886;2024-01-16T01:07:21;95590.34;;;-3.54;72.87
49451;BME280;35336;48.400;10.886;2024-01-16T01:07:37;95586.34;;;-3.58;72.97
49451;BME280;35336;48.400;10.886;2024-01-16T01:07:52;95587.19;;;-3.58;72.93
49451;BME280;35336;48.400;10.886;2024-01-16T01:08:07;95598.28;;;-3.56;72.94
49451;BME280;35336;48.400;10.886;2024-01-16T01:08:23;95594.88;;;-3.56;72.95
49451;BME280;35336;48.400;10.886;2024-01-16T01:08:38;95586.22;;;-3.57;73.22
49451;BME280;35336;48.400;10.886;2024-01-16T01:08:53;95574.47;;;-3.72;72.93
49451;BME280;35336;48.400;10.886;2024-01-16T01:09:08;95589.78;;;-3.58;72.93
49451;BME280;35336;48.400;10.886;2024-01-16T01:09:24;95591.16;;;-3.54;72.59
49451;BME280;35336;48.400;10.886;2024-01-16T01:09:39;95595.56;;;-3.54;72.76
49451;BME280;35336;48.400;10.886;2024-01-16T01:09:54;95574.34;;;-3.71;72.88
49451;BME280;35336;48.400;10.886;2024-01-16T01:10:09;95594.03;;;-3.57;72.79
49451;BME280;35336;48.400;10.886;2024-01-16T01:10:25;95597.84;;;-3.61;72.97
49451;BME280;35336;48.400;10.886;2024-01-16T01:10:40;95572.09;;;-3.75;72.77
49451;BME280;35336;48.400;10.886;2024-01-16T01:10:55;95585.31;;;-3.67;72.81
49451;BME280;35336;48.400;10.886;2024-01-16T01:11:14;95597.72;;;-3.59;72.95
49451;BME280;35336;48.400;10.886;2024-01-16T01:11:29;95592.63;;;-3.61;72.80
49451;BME280;35336;48.400;10.886;2024-01-16T01:11:45;95597.03;;;-3.61;72.88
49451;BME280;35336;48.400;10.886;2024-01-16T01:12:00;95582.16;;;-3.71;72.83
49451;BME280;35336;48.400;10.886;2024-01-16T01:12:18;95594.44;;;-3.61;73.10
49451;BME280;35336;48.400;10.886;2024-01-16T01:12:33;95601.03;;;-3.57;73.15
49451;BME280;35336;48.400;10.886;2024-01-16T01:12:49;95562.78;;;-3.78;72.99
49451;BME280;35336;48.400;10.886;2024-01-16T01:13:06;95571.03;;;-3.73;72.92
49451;BME280;35336;48.400;10.886;2024-01-16T01:13:22;95593.34;;;-3.59;73.02
49451;BME280;35336;48.400;10.886;2024-01-16T01:13:37;95597.59;;;-3.58;73.01
49451;BME280;35336;48.400;10.886;2024-01-16T01:13:52;95594.03;;;-3.57;73.30
49451;BME280;35336;48.400;10.886;2024-01-16T01:14:10;95594.03;;;-3.57;73.12
49451;BME280;35336;48.400;10.886;2024-01-16T01:14:25;95592.50;;;-3.59;73.18
49451;BME280;35336;48.400;10.886;2024-01-16T01:14:46;95600.22;;;-3.58;73.47
49451;BME280;35336;48.400;10.886;2024-01-16T01:15:01;95598.56;;;-3.59;73.12
49451;BME280;35336;48.400;10.886;2024-01-16T01:15:16;95600.44;;;-3.61;73.22
49451;BME280;35336;48.400;10.886;2024-01-16T01:15:32;95590.97;;;-3.62;72.99
49451;BME280;35336;48.400;10.886;2024-01-16T01:15:47;95567.41;;;-3.81;72.94
49451;BME280;35336;48.400;10.886;2024-01-16T01:16:03;95597.13;;;-3.63;72.88
49451;BME280;35336;48.400;10.886;2024-01-16T01:16:18;95595.50;;;-3.64;72.76
49451;BME280;35336;48.400;10.886;2024-01-16T01:16:33;95560.91;;;-3.87;72.89
49451;BME280;35336;48.400;10.886;2024-01-16T01:16:49;95593.28;;;-3.69;73.03
49451;BME280;35336;48.400;10.886;2024-01-16T01:17:04;95566.84;;;-3.85;72.83
49451;BME280;35336;48.400;10.886;2024-01-16T01:17:19;95595.75;;;-3.67;73.00
49451;BME280;35336;48.400;10.886;2024-01-16T01:17:35;95589.72;;;-3.68;72.93
49451;BME280;35336;48.400;10.886;2024-01-16T01:17:50;95596.84;;;-3.70;73.05
49451;BME280;35336;48.400;10.886;2024-01-16T01:18:06;95591.75;;;-3.71;73.04
49451;BME280;35336;48.400;10.886;2024-01-16T01:18:21;95591.88;;;-3.73;73.10
49451;BME280;35336;48.400;10.886;2024-01-16T01:18:39;95596.00;;;-3.70;73.13
49451;BME280;35336;48.400;10.886;2024-01-16T01:18:54;95594.47;;;-3.73;73.16
49451;BME280;35336;48.400;10.886;2024-01-16T01:19:09;95598.72;;;-3.72;73.15
49451;BME280;35336;48.400;10.886;2024-01-16T01:19:24;95582.78;;;-3.78;73.17
49451;BME280;35336;48.400;10.886;2024-01-16T01:19:40;95599.56;;;-3.71;73.25
49451;BME280;35336;48.400;10.886;2024-01-16T01:19:55;95600.53;;;-3.72;73.56
49451;BME280;35336;48.400;10.886;2024-01-16T01:20:10;95593.78;;;-3.75;73.90
49451;BME280;35336;48.400;10.886;2024-01-16T01:20:30;95600.53;;;-3.72;73.48
49451;BME280;35336;48.400;10.886;2024-01-16T01:20:48;95593.53;;;-3.72;73.27
49451;BME280;35336;48.400;10.886;2024-01-16T01:21:03;95575.03;;;-3.90;73.27
49451;BME280;35336;48.400;10.886;2024-01-16T01:21:18;95592.94;;;-3.75;73.20
49451;BME280;35336;48.400;10.886;2024-01-16T01:21:37;95598.16;;;-3.75;73.40
49451;BME280;35336;48.400;10.886;2024-01-16T01:21:55;95594.03;;;-3.78;73.42
49451;BME280;35336;48.400;10.886;2024-01-16T01:22:10;95599.00;;;-3.75;73.30
49451;BME280;35336;48.400;10.886;2024-01-16T01:22:25;95594.59;;;-3.74;73.21
49451;BME280;35336;48.400;10.886;2024-01-16T01:22:41;95599.00;;;-3.75;73.22
49451;BME280;35336;48.400;10.886;2024-01-16T01:22:56;95605.84;;;-3.74;73.45
49451;BME280;35336;48.400;10.886;2024-01-16T01:23:11;95582.31;;;-3.84;73.27